メインページ
METAR-TAF:

METAR-TAF

空港 :

ヴォルゴグラード国際空港

ヴォルゴグラード, ロシア

緯度: 48-47N, 経度: 044-22E, 海抜: 145m

現時点の気象観測

当レポートは31分前の10:00(UTC)に作成
東/南東の風 6kt、東/北東からの間で変化する
気温 30°C
湿度 21%
気圧 1013 hPa
視程10km以上
1,500メートル以下は雲なし、積乱雲なし

METAR: URWW 191000Z 12003MPS 060V170 CAVOK 30/05 Q1013 R06/010070 TEMPO 06007G15MPS

時間: 13:31 (10:31 UTC)

予報

当レポートは2時間31分前の08:00(UTC)に作成
予報は19日の 09時(UTC)から 19日の 18時(UTC)まで有効
の風 6kt、最大16ktの突風を伴う
視程10km以上
高度4000ftの雲は散在している
19日の 09時(UTC)から 19日の 18時(UTC)まで一時的に
北東の風 10kt、最大21ktの突風を伴う

TAF: URWW 190800Z 1909/1918 35003G08MPS 9999 SCT040 TEMPO 1909/1918 04005G11MPS

4,000以上の空港の気象観測と天気予報(METAR報とTAF報)

利用可能な観測所は地図上に黄色い丸と赤い丸で示す。

丸の上にカーソルを重ねると観測所名を参照できる。

次にクリックすると気象観測と天気予報を参照できる。

マップの切り替え:黒色「×」印の緑ボタンをクリックして拡大、「-」印の緑ボタンをクリックして縮小、緑色の三角印をクリックして隣りの地図に切り替え


METAR-TAF: